Time;durP1;ratioP1;P1;durP2;ratioP2;P2;SDS_P1;SDS_P2;PMS_P1;PMS_P2;Temp;Humidity;BMP_temperature;BMP_pressure;BME280_temperature;BME280_humidity;BME280_pressure;Samples;Min_cycle;Max_cycle;Signal;HPM_P1;HPM_P2
2022/09/05 00:00:34;;;;;;;2.16;0.89;;;;;;;12.73;58.26;101543.59;461633;114;922877;-71
2022/09/05 00:02:02;;;;;;;1.11;0.99;;;;;;;12.72;58.28;101539.16;461054;114;930824;-71
2022/09/05 00:03:28;;;;;;;1.23;1.06;;;;;;;12.72;58.39;101535.58;461828;114;922571;-71
2022/09/05 00:04:36;;;;;;;0.82;0.81;;;;;;;12.70;58.38;101535.78;461867;114;923002;-71
2022/09/05 00:05:49;;;;;;;1.76;1.08;;;;;;;12.69;58.34;101538.70;461998;114;922530;-72
2022/09/05 00:07:31;;;;;;;1.29;1.03;;;;;;;12.67;58.54;101538.09;458908;114;922895;-71
2022/09/05 00:08:46;;;;;;;1.34;0.95;;;;;;;12.65;58.49;101540.18;458604;114;923007;-72
2022/09/05 00:10:09;;;;;;;1.44;1.07;;;;;;;12.62;58.55;101538.71;461433;114;922782;-71
2022/09/05 00:11:31;;;;;;;0.78;0.78;;;;;;;12.60;58.61;101539.95;461973;114;922616;-72
2022/09/05 00:12:38;;;;;;;1.39;1.07;;;;;;;12.58;58.78;101537.41;460375;114;923020;-71
2022/09/05 00:13:45;;;;;;;1.23;1.09;;;;;;;12.57;58.70;101535.72;461925;114;923202;-71
2022/09/05 00:15:00;;;;;;;1.48;1.02;;;;;;;12.56;58.82;101539.53;461966;114;922516;-71
2022/09/05 00:16:17;;;;;;;1.60;0.90;;;;;;;12.57;58.70;101532.17;454279;116;922967;-71
2022/09/05 00:17:33;;;;;;;1.17;0.83;;;;;;;12.57;58.62;101532.98;455919;116;922897;-71
2022/09/05 00:19:06;;;;;;;1.02;0.89;;;;;;;12.56;58.65;101523.11;453901;116;922447;-71
2022/09/05 00:20:38;;;;;;;1.43;1.10;;;;;;;12.56;58.60;101528.59;442367;116;923464;-71
2022/09/05 00:21:53;;;;;;;2.30;1.03;;;;;;;12.53;58.50;101529.83;454143;116;922528;-70
2022/09/05 00:23:01;;;;;;;1.10;0.94;;;;;;;12.47;58.51;101530.64;456540;116;922931;-71
2022/09/05 00:24:25;;;;;;;1.64;0.93;;;;;;;12.45;58.64;101530.02;456487;115;922664;-71
2022/09/05 00:25:49;;;;;;;0.97;0.88;;;;;;;12.45;58.71;101527.28;454022;116;923005;-71
2022/09/05 00:27:25;;;;;;;0.96;0.87;;;;;;;12.44;58.74;101528.33;457143;116;923013;-71
2022/09/05 00:28:43;;;;;;;0.86;0.82;;;;;;;12.44;58.73;101538.42;456954;115;923456;-71
2022/09/05 00:30:04;;;;;;;2.23;1.11;;;;;;;12.41;58.78;101534.19;458019;115;922566;-70
2022/09/05 00:31:16;;;;;;;2.42;1.11;;;;;;;12.41;58.81;101527.87;459619;114;922566;-71
2022/09/05 00:32:50;;;;;;;1.90;1.14;;;;;;;12.41;58.88;101530.60;464698;114;923370;-70
2022/09/05 00:34:00;;;;;;;1.17;1.07;;;;;;;12.41;58.89;101522.40;461710;113;923074;-70
2022/09/05 00:35:35;;;;;;;1.11;1.01;;;;;;;12.40;58.99;101526.20;457163;116;922499;-71
2022/09/05 00:36:42;;;;;;;1.38;1.17;;;;;;;12.40;59.02;101534.41;457077;116;923037;-71
2022/09/05 00:37:48;;;;;;;1.42;0.86;;;;;;;12.38;58.80;101540.08;457125;116;922902;-71
2022/09/05 00:38:55;;;;;;;1.53;1.02;;;;;;;12.34;58.72;101533.34;457123;116;922586;-72
2022/09/05 00:40:10;;;;;;;1.46;0.91;;;;;;;12.31;58.73;101532.88;463832;113;922904;-71
2022/09/05 00:41:21;;;;;;;1.14;1.09;;;;;;;12.40;58.71;101537.15;493719;107;926011;-71
2022/09/05 00:42:25;;;;;;;1.22;1.11;;;;;;;12.28;58.75;101533.30;484108;109;922784;-71
2022/09/05 00:43:32;;;;;;;1.82;0.99;;;;;;;12.27;58.77;101535.19;484006;109;930132;-71
2022/09/05 00:44:38;;;;;;;1.39;1.13;;;;;;;12.28;58.76;101538.77;483938;109;930247;-70
2022/09/05 00:46:04;;;;;;;2.44;1.30;;;;;;;12.29;58.75;101532.25;482818;109;922819;-71
2022/09/05 00:47:26;;;;;;;1.39;0.96;;;;;;;12.30;58.80;101529.30;484051;109;923110;-71
2022/09/05 00:48:36;;;;;;;1.83;1.01;;;;;;;12.31;58.71;101533.72;484020;109;923257;-72
2022/09/05 00:49:45;;;;;;;1.28;1.18;;;;;;;12.30;58.69;101537.50;484013;109;922615;-71
2022/09/05 00:51:20;;;;;;;1.06;0.98;;;;;;;12.28;58.60;101536.03;484028;109;923368;-71
2022/09/05 00:52:28;;;;;;;0.87;0.87;;;;;;;12.24;58.54;101545.70;483093;109;922982;-71
2022/09/05 00:53:50;;;;;;;1.02;0.97;;;;;;;12.19;58.61;101540.80;483630;109;923040;-71
2022/09/05 00:54:56;;;;;;;1.88;1.09;;;;;;;12.17;58.64;101542.92;483988;109;922762;-71
2022/09/05 00:56:22;;;;;;;1.15;0.85;;;;;;;12.15;58.64;101541.41;483917;109;923004;-71
2022/09/05 00:57:29;;;;;;;1.05;0.98;;;;;;;12.13;58.71;101538.06;484011;109;922969;-70
2022/09/05 00:58:41;;;;;;;1.13;1.04;;;;;;;12.10;58.72;101534.67;481147;109;922795;-70
2022/09/05 01:00:14;;;;;;;1.34;1.02;;;;;;;12.10;58.85;101531.09;475299;111;923107;-71
2022/09/05 01:01:25;;;;;;;2.08;1.16;;;;;;;12.11;59.01;101530.90;475225;111;922817;-71
2022/09/05 01:03:09;;;;;;;1.13;1.06;;;;;;;12.13;58.97;101532.59;475272;111;923003;-71
2022/09/05 01:04:37;;;;;;;1.65;1.01;;;;;;;12.13;59.00;101528.78;475300;111;922921;-72
2022/09/05 01:06:00;;;;;;;1.29;1.19;;;;;;;12.13;59.14;101528.78;475285;111;922767;-71
2022/09/05 01:07:13;;;;;;;1.28;1.12;;;;;;;12.12;59.09;101531.75;475301;111;922896;-71
2022/09/05 01:08:26;;;;;;;2.11;0.99;;;;;;;12.09;58.94;101530.24;474797;111;923050;-71
2022/09/05 01:09:47;;;;;;;1.18;1.12;;;;;;;12.05;58.82;101526.23;475315;111;923128;-71
2022/09/05 01:10:54;;;;;;;1.16;0.94;;;;;;;12.03;58.86;101528.31;475322;111;922564;-71
2022/09/05 01:12:15;;;;;;;1.31;1.15;;;;;;;12.01;59.05;101535.05;475219;111;923125;-71
2022/09/05 01:13:39;;;;;;;1.33;1.11;;;;;;;12.02;59.06;101533.97;448416;118;923156;-71
2022/09/05 01:14:45;;;;;;;1.88;1.21;;;;;;;12.03;59.21;101527.47;471181;111;922591;-71
2022/09/05 01:15:58;;;;;;;1.32;1.07;;;;;;;12.02;59.06;101531.23;474913;111;922960;-70
2022/09/05 01:17:24;;;;;;;1.50;1.00;;;;;;;12.01;59.04;101530.42;464666;114;922891;-71
2022/09/05 01:18:46;;;;;;;1.79;1.42;;;;;;;12.01;59.18;101532.31;475301;111;922866;-70
2022/09/05 01:20:08;;;;;;;1.64;1.18;;;;;;;12.01;59.11;101527.69;475231;111;922943;-70
2022/09/05 01:21:39;;;;;;;2.07;1.12;;;;;;;12.01;58.99;101529.58;473650;111;922461;-72
2022/09/05 01:23:04;;;;;;;1.09;0.99;;;;;;;11.97;58.89;101531.84;475194;111;922732;-70
2022/09/05 01:24:15;;;;;;;1.58;1.02;;;;;;;11.94;58.93;101529.53;474846;111;922562;-70
2022/09/05 01:25:30;;;;;;;1.42;1.09;;;;;;;11.93;59.06;101527.84;475058;111;923200;-71
2022/09/05 01:26:41;;;;;;;1.64;1.11;;;;;;;11.93;59.08;101527.84;473898;111;922841;-70
2022/09/05 01:28:24;;;;;;;1.09;0.92;;;;;;;11.92;59.08;101531.61;475293;111;923382;-71
2022/09/05 01:29:39;;;;;;;2.22;1.21;;;;;;;11.92;59.02;101525.30;474725;111;922675;-71
2022/09/05 01:30:48;;;;;;;1.10;1.10;;;;;;;11.91;59.11;101529.91;476033;111;922561;-71
2022/09/05 01:32:05;;;;;;;1.45;1.10;;;;;;;12.02;59.22;101526.62;486007;108;947060;-72
2022/09/05 01:33:21;;;;;;;1.89;0.94;;;;;;;11.92;59.20;101522.56;471598;111;923092;-72
2022/09/05 01:35:01;;;;;;;1.63;0.99;;;;;;;11.93;59.24;101521.52;465590;113;923453;-71
2022/09/05 01:36:20;;;;;;;2.64;1.18;;;;;;;11.94;59.28;101528.69;466123;113;923082;-71
2022/09/05 01:37:39;;;;;;;1.77;1.09;;;;;;;11.93;59.24;101522.37;466144;113;923013;-71
2022/09/05 01:38:58;;;;;;;1.41;1.07;;;;;;;11.92;59.25;101520.67;465834;113;923544;-71
2022/09/05 01:40:19;;;;;;;1.10;0.93;;;;;;;11.90;59.16;101519.20;463155;113;922450;-72
2022/09/05 01:41:29;;;;;;;0.97;0.94;;;;;;;11.87;59.00;101517.70;466187;113;922887;-71
2022/09/05 01:42:51;;;;;;;1.91;1.04;;;;;;;11.81;58.98;101518.50;465928;113;923041;-71
2022/09/05 01:44:10;;;;;;;1.21;1.11;;;;;;;11.76;58.94;101520.98;464765;113;930272;-71
2022/09/05 01:45:20;;;;;;;1.92;1.21;;;;;;;11.68;58.92;101519.25;466161;113;922641;-71
2022/09/05 01:46:45;;;;;;;1.40;0.89;;;;;;;11.63;59.07;101527.16;466121;113;922595;-72
2022/09/05 01:48:07;;;;;;;1.93;1.13;;;;;;;11.61;59.21;101523.80;466122;113;923159;-71
2022/09/05 01:49:30;;;;;;;2.28;1.29;;;;;;;11.60;59.43;101522.11;465943;113;922490;-71
2022/09/05 01:51:02;;;;;;;1.34;1.09;;;;;;;11.62;59.59;101520.04;466169;113;923022;-71
2022/09/05 01:52:16;;;;;;;1.27;1.17;;;;;;;11.65;59.65;101526.97;465737;113;922805;-71
2022/09/05 01:53:34;;;;;;;1.25;1.09;;;;;;;11.65;59.77;101521.52;465234;113;922549;-72
2022/09/05 01:55:07;;;;;;;1.42;1.08;;;;;;;11.64;59.70;101517.93;465802;113;922446;-71
2022/09/05 01:56:30;;;;;;;1.21;1.11;;;;;;;11.64;59.68;101508.89;466170;113;923224;-71
2022/09/05 01:57:48;;;;;;;1.29;1.18;;;;;;;11.65;59.67;101513.31;466194;113;922989;-71
2022/09/05 01:59:15;;;;;;;1.22;1.07;;;;;;;11.65;59.66;101507.85;464984;113;922491;-72
2022/09/05 02:00:30;;;;;;;1.39;1.21;;;;;;;11.65;59.69;101516.89;464362;114;922521;-72
2022/09/05 02:01:56;;;;;;;1.17;1.07;;;;;;;11.66;59.71;101517.74;463306;114;922588;-72
2022/09/05 02:03:21;;;;;;;1.71;1.20;;;;;;;11.67;59.76;101508.51;464373;114;923187;-71
2022/09/05 02:04:37;;;;;;;11.37;1.66;;;;;;;11.66;59.77;101515.01;464430;114;923087;-72
2022/09/05 02:06:11;;;;;;;1.42;1.11;;;;;;;11.66;59.72;101518.59;460986;114;922975;-71
2022/09/05 02:07:21;;;;;;;1.13;1.03;;;;;;;11.64;59.62;101523.39;464429;114;923116;-71
2022/09/05 02:08:52;;;;;;;1.46;1.15;;;;;;;11.62;59.47;101519.19;449850;115;922642;-71
2022/09/05 02:10:08;;;;;;;2.56;1.41;;;;;;;11.58;59.42;101517.87;464391;114;923125;-71
2022/09/05 02:11:12;;;;;;;1.41;1.14;;;;;;;11.53;59.41;101523.94;463986;114;923062;-71
2022/09/05 02:12:28;;;;;;;1.37;1.21;;;;;;;11.51;59.49;101517.00;464480;114;923244;-71
2022/09/05 02:13:38;;;;;;;1.67;1.37;;;;;;;11.50;59.41;101520.77;463757;114;923012;-69
2022/09/05 02:15:05;;;;;;;1.29;1.19;;;;;;;11.49;59.49;101510.88;464453;114;923056;-71
2022/09/05 02:16:33;;;;;;;1.34;1.24;;;;;;;11.51;59.52;101511.54;457394;115;923044;-71
2022/09/05 02:17:43;;;;;;;1.29;1.19;;;;;;;11.52;59.51;101514.05;458112;115;922509;-71
2022/09/05 02:18:52;;;;;;;1.34;1.16;;;;;;;11.53;59.43;101515.75;457224;115;922813;-71
2022/09/05 02:20:15;;;;;;;1.76;1.35;;;;;;;11.52;59.40;101514.05;458130;115;922522;-72
2022/09/05 02:21:34;;;;;;;1.33;1.20;;;;;;;11.52;59.47;101511.32;457185;115;922481;-71
2022/09/05 02:23:04;;;;;;;1.72;1.33;;;;;;;11.52;59.41;101513.23;454949;115;922545;-71
2022/09/05 02:24:19;;;;;;;1.11;1.03;;;;;;;11.52;59.40;101518.70;455031;115;922994;-72
2022/09/05 02:25:28;;;;;;;1.36;1.25;;;;;;;11.52;59.35;101505.05;457936;115;922905;-72
2022/09/05 02:26:59;;;;;;;1.22;1.13;;;;;;;11.52;59.42;101516.78;455003;115;923022;-71
2022/09/05 02:28:06;;;;;;;1.55;1.44;;;;;;;11.53;59.41;101510.28;458098;115;923073;-71
2022/09/05 02:29:24;;;;;;;1.17;1.12;;;;;;;11.55;59.38;101510.09;457390;115;922481;-71
2022/09/05 02:30:34;;;;;;;1.92;1.35;;;;;;;11.54;59.31;101506.52;457847;115;923040;-71
2022/09/05 02:31:50;;;;;;;1.57;1.36;;;;;;;11.54;59.18;101513.86;464101;111;923026;-71
2022/09/05 02:33:21;;;;;;;1.68;1.32;;;;;;;11.52;59.12;101510.50;461685;115;923006;-71
2022/09/05 02:34:42;;;;;;;1.67;1.42;;;;;;;11.51;59.14;101508.81;454918;115;922532;-72
2022/09/05 02:35:50;;;;;;;1.46;1.31;;;;;;;11.48;59.16;101509.19;453763;117;922657;-72
2022/09/05 02:37:18;;;;;;;1.71;1.48;;;;;;;11.48;59.19;101512.77;445258;119;923490;-72
2022/09/05 02:38:45;;;;;;;1.34;1.19;;;;;;;11.49;59.30;101517.19;451016;117;922820;-71
2022/09/05 02:40:11;;;;;;;1.16;1.08;;;;;;;11.48;59.24;101515.50;451035;117;922561;-70
2022/09/05 02:41:38;;;;;;;2.26;1.50;;;;;;;11.47;59.09;101519.27;444623;119;922624;-72
2022/09/05 02:42:56;;;;;;;1.34;1.22;;;;;;;11.45;59.16;101518.64;442518;119;923065;-72
2022/09/05 02:44:08;;;;;;;1.68;1.45;;;;;;;11.42;59.15;101519.02;440643;119;922592;-71
2022/09/05 02:45:34;;;;;;;2.06;1.33;;;;;;;11.40;59.17;101512.92;442166;119;922670;-71
2022/09/05 02:46:51;;;;;;;1.63;1.37;;;;;;;11.40;59.09;101520.27;444617;119;922892;-72
2022/09/05 02:48:22;;;;;;;1.59;1.48;;;;;;;11.40;59.18;101515.66;444329;119;922913;-71
2022/09/05 02:49:32;;;;;;;1.39;1.28;;;;;;;11.40;59.23;101523.00;444248;119;922665;-71
2022/09/05 02:50:53;;;;;;;1.53;1.39;;;;;;;11.39;59.36;101518.58;439910;119;922646;-71
2022/09/05 02:52:01;;;;;;;1.76;1.52;;;;;;;11.39;59.35;101510.39;444532;119;922684;-71
2022/09/05 02:53:09;;;;;;;1.54;1.44;;;;;;;11.38;59.32;101520.46;442453;119;922970;-71
2022/09/05 02:54:29;;;;;;;2.22;1.47;;;;;;;11.38;59.38;101515.00;434845;121;922460;-71
2022/09/05 02:55:41;;;;;;;1.68;1.20;;;;;;;11.39;59.41;101510.39;441844;119;922734;-72
2022/09/05 02:57:05;;;;;;;2.26;1.29;;;;;;;11.40;59.42;101523.00;436639;121;927835;-72
2022/09/05 02:58:37;;;;;;;1.66;1.38;;;;;;;11.41;59.50;101525.52;436656;121;922535;-70
2022/09/05 02:59:49;;;;;;;1.77;1.51;;;;;;;11.43;59.64;101519.86;437592;121;922431;-71
2022/09/05 03:01:10;;;;;;;1.54;1.36;;;;;;;11.44;59.54;101527.02;444760;119;922514;-70
2022/09/05 03:02:23;;;;;;;1.65;1.42;;;;;;;11.46;59.50;101530.41;442472;120;922901;-70
2022/09/05 03:03:35;;;;;;;1.36;1.24;;;;;;;11.45;59.33;101529.56;437853;121;923180;-70
2022/09/05 03:04:49;;;;;;;2.04;1.19;;;;;;;11.43;59.15;101530.78;445102;119;923020;-70
2022/09/05 03:05:59;;;;;;;1.66;1.27;;;;;;;11.38;59.07;101525.08;444531;119;922540;-71
2022/09/05 03:07:24;;;;;;;2.79;1.42;;;;;;;11.34;59.02;101531.98;443129;119;923107;-70
2022/09/05 03:08:57;;;;;;;1.32;1.23;;;;;;;11.30;58.96;101529.63;442602;120;922999;-70
2022/09/05 03:10:23;;;;;;;1.80;1.32;;;;;;;11.25;59.11;101532.10;435655;121;922668;-70
2022/09/05 03:11:58;;;;;;;2.04;1.41;;;;;;;11.25;59.17;101534.83;437589;121;922539;-71
2022/09/05 03:13:09;;;;;;;2.44;1.49;;;;;;;11.26;59.30;101536.53;444992;119;922969;-71
2022/09/05 03:14:43;;;;;;;1.69;1.52;;;;;;;11.27;59.41;101532.77;442365;120;922543;-71
2022/09/05 03:15:52;;;;;;;1.76;1.43;;;;;;;11.27;59.43;101527.30;438954;120;923013;-70
2022/09/05 03:17:31;;;;;;;1.47;1.23;;;;;;;11.30;59.40;101532.36;449110;118;923104;-71
2022/09/05 03:18:46;;;;;;;1.38;1.23;;;;;;;11.31;59.33;101533.20;445697;119;923192;-71
2022/09/05 03:20:26;;;;;;;1.31;1.14;;;;;;;11.32;59.26;101531.32;445681;119;922603;-71
2022/09/05 03:21:58;;;;;;;2.47;1.37;;;;;;;11.30;59.18;101534.27;445741;119;922612;-71
2022/09/05 03:23:32;;;;;;;1.61;1.18;;;;;;;11.26;59.05;101535.67;445742;119;922543;-71
2022/09/05 03:24:56;;;;;;;1.57;1.47;;;;;;;11.20;59.04;101540.03;445663;119;922872;-70
2022/09/05 03:26:25;;;;;;;1.60;1.33;;;;;;;11.15;59.08;101537.05;445731;119;922922;-71
2022/09/05 03:28:02;;;;;;;1.74;1.64;;;;;;;11.10;59.09;101542.25;445686;119;923147;-71
2022/09/05 03:29:25;;;;;;;1.73;1.54;;;;;;;11.05;59.19;101539.27;435405;121;922740;-71
2022/09/05 03:31:07;;;;;;;1.33;1.22;;;;;;;11.05;59.48;101532.96;438209;121;922761;-71
2022/09/05 03:32:21;;;;;;;1.05;0.97;;;;;;;11.08;59.58;101524.41;438470;118;923343;-71
2022/09/05 03:33:40;;;;;;;2.02;1.24;;;;;;;11.11;59.58;101530.30;443687;119;922677;-71
2022/09/05 03:35:02;;;;;;;1.49;1.32;;;;;;;11.14;59.55;101531.78;444692;119;923176;-69
2022/09/05 03:36:30;;;;;;;1.55;1.42;;;;;;;11.16;59.48;101529.71;444665;119;923160;-71
2022/09/05 03:37:53;;;;;;;2.41;1.46;;;;;;;11.17;59.44;101534.98;444655;119;922641;-70
2022/09/05 03:39:31;;;;;;;1.21;1.11;;;;;;;11.17;59.48;101532.25;457798;115;922602;-71
2022/09/05 03:40:58;;;;;;;1.84;1.30;;;;;;;11.19;59.58;101530.15;458010;115;922563;-70
2022/09/05 03:42:05;;;;;;;1.36;1.20;;;;;;;11.21;59.62;101535.42;455335;115;923013;-70
2022/09/05 03:43:31;;;;;;;1.07;1.00;;;;;;;11.23;59.58;101536.93;456935;115;922954;-70
2022/09/05 03:44:50;;;;;;;1.89;1.19;;;;;;;11.26;59.57;101533.80;456630;115;923420;-70
2022/09/05 03:46:13;;;;;;;1.29;1.19;;;;;;;11.30;59.57;101534.27;457301;115;922947;-70
2022/09/05 03:47:32;;;;;;;1.08;0.99;;;;;;;11.34;59.48;101530.09;456765;115;923088;-70
2022/09/05 03:49:01;;;;;;;1.42;1.17;;;;;;;11.37;59.46;101537.03;457966;115;922611;-70
2022/09/05 03:50:16;;;;;;;;;;;;;;;11.40;59.39;101533.92;458761;115;922971;-70
2022/09/05 03:51:25;;;;;;;1.32;1.15;;;;;;;11.41;59.33;101538.35;454939;115;922456;-70
2022/09/05 03:52:46;;;;;;;1.31;1.21;;;;;;;11.40;59.31;101539.39;454966;115;922580;-70
2022/09/05 03:54:09;;;;;;;1.67;1.21;;;;;;;11.40;59.30;101542.12;453505;115;922480;-69
2022/09/05 03:55:33;;;;;;;3.96;1.41;;;;;;;11.40;59.24;101537.50;457920;115;922992;-70
2022/09/05 03:56:58;;;;;;;1.47;1.25;;;;;;;11.39;59.07;101541.27;454893;115;922471;-70
2022/09/05 03:58:25;;;;;;;1.32;1.22;;;;;;;11.36;58.95;101540.83;441292;120;923058;-70
2022/09/05 04:00:02;;;;;;;4.64;1.36;;;;;;;11.34;58.99;101546.48;454956;115;922558;-70
2022/09/05 04:01:15;;;;;;;2.40;1.25;;;;;;;11.32;58.99;101542.23;453165;115;922949;-70
2022/09/05 04:02:27;;;;;;;1.93;1.31;;;;;;;11.29;59.04;101546.22;457444;115;922916;-70
2022/09/05 04:03:38;;;;;;;2.11;1.18;;;;;;;11.28;59.04;101542.65;454870;115;923216;-70
2022/09/05 04:05:05;;;;;;;1.34;1.23;;;;;;;11.28;59.00;101542.65;454942;115;923055;-71
2022/09/05 04:06:26;;;;;;;1.47;1.34;;;;;;;11.26;58.99;101541.98;457433;115;922851;-70
2022/09/05 04:07:45;;;;;;;1.79;1.34;;;;;;;11.26;59.00;101549.33;457362;115;922607;-70
2022/09/05 04:08:57;;;;;;;2.68;1.34;;;;;;;11.25;59.02;101539.44;454516;115;922749;-70
2022/09/05 04:10:04;;;;;;;2.42;1.41;;;;;;;11.24;59.17;101537.78;442112;120;930468;-70
2022/09/05 04:11:22;;;;;;;1.67;1.42;;;;;;;11.25;59.20;101540.29;452742;115;922413;-69
2022/09/05 04:12:35;;;;;;;2.17;1.57;;;;;;;11.25;59.24;101537.56;457917;115;923137;-69
2022/09/05 04:13:47;;;;;;;1.72;1.33;;;;;;;11.24;59.18;101535.90;457807;115;922584;-69
2022/09/05 04:14:56;;;;;;;2.16;1.32;;;;;;;11.25;59.22;101536.72;457959;115;923013;-71
2022/09/05 04:16:09;;;;;;;1.33;1.23;;;;;;;11.26;59.33;101543.87;462051;114;922522;-71
2022/09/05 04:17:28;;;;;;;1.53;1.43;;;;;;;11.28;59.41;101537.19;462080;114;923045;-71
2022/09/05 04:18:37;;;;;;;2.14;1.47;;;;;;;11.34;59.52;101542.91;462129;114;922425;-70
2022/09/05 04:19:50;;;;;;;2.58;1.75;;;;;;;11.38;59.49;101544.19;462492;114;922608;-71
2022/09/05 04:21:03;;;;;;;2.60;1.35;;;;;;;11.42;59.50;101537.28;461607;114;922541;-68
2022/09/05 04:22:18;;;;;;;1.53;1.43;;;;;;;11.47;59.53;101543.84;461933;114;922576;-71
2022/09/05 04:23:44;;;;;;;1.74;1.52;;;;;;;11.51;59.56;101544.31;462453;114;922925;-68
2022/09/05 04:24:54;;;;;;;1.63;1.23;;;;;;;11.55;59.56;101546.45;457924;113;922565;-70
2022/09/05 04:26:20;;;;;;;2.32;1.35;;;;;;;11.59;59.50;101542.27;454462;116;922826;-69
2022/09/05 04:27:36;;;;;;;1.72;1.33;;;;;;;11.61;59.48;101548.39;455848;116;922491;-71
2022/09/05 04:28:42;;;;;;;1.38;1.28;;;;;;;11.64;59.41;101545.25;455784;116;923081;-71
2022/09/05 04:29:54;;;;;;;1.59;1.48;;;;;;;11.66;59.39;101554.10;457524;113;922953;-70
2022/09/05 04:31:04;;;;;;;1.58;1.35;;;;;;;11.68;59.33;101551.18;465639;113;923109;-71
2022/09/05 04:32:19;;;;;;;1.98;1.44;;;;;;;11.71;59.31;101548.88;463707;113;922542;-70
2022/09/05 04:33:46;;;;;;;1.57;1.34;;;;;;;11.74;59.34;101549.58;451296;117;922782;-70
2022/09/05 04:35:14;;;;;;;1.73;1.22;;;;;;;11.77;59.30;101550.01;456459;115;922553;-69
2022/09/05 04:36:27;;;;;;;1.80;1.41;;;;;;;11.79;59.26;101553.40;457419;115;923521;-69
2022/09/05 04:37:59;;;;;;;1.77;1.64;;;;;;;11.81;59.26;101555.91;457921;115;923130;-70
2022/09/05 04:39:21;;;;;;;1.37;1.27;;;;;;;11.84;59.22;101555.53;457970;114;922537;-70
2022/09/05 04:40:43;;;;;;;2.33;1.51;;;;;;;11.86;59.20;101553.42;457943;115;922581;-70
2022/09/05 04:42:14;;;;;;;1.96;1.49;;;;;;;11.87;59.21;101561.42;457959;115;923058;-69
2022/09/05 04:43:19;;;;;;;;;;;;;;;11.88;59.18;101557.66;461746;115;922146;-71
2022/09/05 04:44:26;;;;;;;3.34;1.39;;;;;;;11.90;59.10;101561.05;458000;114;922395;-70
2022/09/05 04:45:32;;;;;;;1.37;1.22;;;;;;;11.90;59.13;101560.20;457356;115;930230;-70
2022/09/05 04:46:39;;;;;;;3.91;1.24;;;;;;;11.89;59.26;101556.62;457838;115;923387;-70
2022/09/05 04:47:49;;;;;;;2.26;1.48;;;;;;;11.91;59.18;101549.05;456992;115;923256;-70
2022/09/05 04:49:07;;;;;;;2.74;1.27;;;;;;;11.93;59.10;101554.32;457943;114;922519;-71
2022/09/05 04:50:18;;;;;;;1.51;1.41;;;;;;;11.94;59.07;101554.12;457814;115;922542;-71
2022/09/05 04:51:42;;;;;;;1.56;1.40;;;;;;;11.95;59.00;101552.24;457591;115;930058;-70
2022/09/05 04:52:56;;;;;;;2.82;1.32;;;;;;;11.94;59.06;101551.39;457978;114;923241;-70
2022/09/05 04:54:17;;;;;;;3.03;1.44;;;;;;;11.92;58.88;101558.94;458020;115;923066;-70
2022/09/05 04:55:27;;;;;;;1.23;1.13;;;;;;;11.88;58.93;101546.73;458007;115;922727;-70
2022/09/05 04:56:35;;;;;;;2.37;1.49;;;;;;;11.85;59.02;101555.34;457994;115;922909;-70
2022/09/05 04:57:53;;;;;;;2.51;1.53;;;;;;;11.85;59.08;101551.76;457891;115;922751;-70
2022/09/05 04:59:01;;;;;;;1.42;1.28;;;;;;;11.84;59.11;101556.38;462589;114;922629;-69
2022/09/05 05:00:27;;;;;;;1.49;1.39;;;;;;;11.84;59.16;101550.06;463860;114;922535;-70
2022/09/05 05:01:36;;;;;;;1.92;1.74;;;;;;;11.84;59.24;101550.06;461286;114;922499;-70
2022/09/05 05:02:47;;;;;;;2.46;1.46;;;;;;;11.87;59.21;101560.58;463626;114;922509;-70
2022/09/05 05:03:52;;;;;;;1.86;1.28;;;;;;;11.88;59.14;101559.55;461003;114;922618;-70
2022/09/05 05:05:04;;;;;;;1.92;1.53;;;;;;;11.88;59.21;101551.34;461264;114;922519;-70
2022/09/05 05:06:19;;;;;;;2.42;1.60;;;;;;;11.92;59.34;101552.63;461319;114;923033;-70
2022/09/05 05:07:39;;;;;;;4.04;1.44;;;;;;;11.96;59.37;101552.02;463797;114;923129;-69
2022/09/05 05:08:46;;;;;;;1.87;1.28;;;;;;;12.00;59.42;101550.59;463708;114;922562;-70
2022/09/05 05:09:53;;;;;;;2.13;1.81;;;;;;;12.06;59.51;101544.33;464227;114;922509;-69
2022/09/05 05:11:08;;;;;;;1.58;1.43;;;;;;;12.13;59.55;101543.53;463773;114;922569;-69
2022/09/05 05:12:22;;;;;;;2.17;1.47;;;;;;;12.18;59.54;101541.87;461210;114;922481;-70
2022/09/05 05:13:37;;;;;;;2.91;2.32;;;;;;;12.25;59.52;101540.00;463791;114;923277;-70
2022/09/05 05:14:56;;;;;;;2.45;1.79;;;;;;;12.30;59.52;101536.66;463661;114;923288;-70
2022/09/05 05:16:17;;;;;;;1.58;1.44;;;;;;;12.36;59.39;101538.58;463725;114;923067;-70
2022/09/05 05:17:34;;;;;;;1.67;1.57;;;;;;;12.40;59.34;101539.88;461304;114;922899;-70
2022/09/05 05:18:48;;;;;;;1.77;1.63;;;;;;;12.45;59.35;101534.64;452573;116;930595;-71
2022/09/05 05:20:21;;;;;;;1.62;1.48;;;;;;;12.49;59.31;101527.70;461727;114;922975;-69
2022/09/05 05:21:32;;;;;;;1.60;1.39;;;;;;;12.67;59.26;101541.67;482385;110;946884;-70
2022/09/05 05:22:38;;;;;;;2.05;1.46;;;;;;;12.59;59.21;101533.63;473882;112;923051;-70
2022/09/05 05:24:18;;;;;;;1.42;1.32;;;;;;;12.62;59.23;101535.98;470506;112;922987;-70
2022/09/05 05:25:25;;;;;;;2.29;1.25;;;;;;;12.66;59.07;101536.40;465123;114;922521;-69
2022/09/05 05:26:41;;;;;;;1.53;1.35;;;;;;;12.69;59.04;101539.55;465302;114;922492;-70
2022/09/05 05:27:48;;;;;;;1.82;1.23;;;;;;;12.72;59.04;101535.58;465333;114;922612;-70
2022/09/05 05:29:06;;;;;;;1.39;1.29;;;;;;;12.75;59.01;101529.69;464549;113;923031;-70
2022/09/05 05:30:11;;;;;;;1.25;1.13;;;;;;;12.78;59.02;101527.39;462121;114;922992;-71
2022/09/05 05:31:17;;;;;;;1.25;1.15;;;;;;;12.84;59.03;101531.20;463035;114;922592;-70
2022/09/05 05:32:24;;;;;;;1.53;1.43;;;;;;;12.88;59.05;101525.10;465080;114;922948;-70
2022/09/05 05:33:35;;;;;;;1.59;1.31;;;;;;;12.93;58.88;101527.22;461915;113;923479;-70
2022/09/05 05:34:45;;;;;;;1.67;1.46;;;;;;;12.98;58.86;101532.06;457278;116;923089;-70
2022/09/05 05:35:50;;;;;;;2.43;1.30;;;;;;;13.02;58.84;101527.84;457264;116;923030;-71
2022/09/05 05:37:17;;;;;;;1.58;1.43;;;;;;;13.07;58.79;101536.28;457243;116;922941;-70
2022/09/05 05:38:26;;;;;;;2.33;1.48;;;;;;;13.11;58.73;101534.84;446584;118;923201;-70
2022/09/05 05:39:43;;;;;;;1.67;1.26;;;;;;;13.27;58.62;101532.58;477003;110;946826;-72
2022/09/05 05:40:56;;;;;;;1.70;1.18;;;;;;;13.19;58.47;101540.97;465343;114;922519;-70
2022/09/05 05:42:01;;;;;;;1.95;1.24;;;;;;;13.18;58.27;101536.55;464287;113;922540;-69
2022/09/05 05:43:16;;;;;;;2.07;1.16;;;;;;;13.18;58.26;101533.80;462293;114;923180;-69
2022/09/05 05:44:28;;;;;;;1.51;1.07;;;;;;;13.19;58.29;101534.66;457996;114;923085;-70
2022/09/05 05:45:32;;;;;;;1.17;1.07;;;;;;;13.21;58.24;101529.82;457315;116;922629;-70
2022/09/05 05:46:39;;;;;;;1.29;1.09;;;;;;;13.21;58.11;101527.08;457464;115;923054;-70
2022/09/05 05:47:52;;;;;;;1.39;1.21;;;;;;;13.22;58.02;101531.52;457331;116;922537;-70
2022/09/05 05:49:06;;;;;;;1.43;0.98;;;;;;;13.21;58.06;101529.82;457225;114;923159;-71
2022/09/05 05:50:33;;;;;;;1.58;1.18;;;;;;;13.22;58.11;101524.14;457274;115;922476;-70
2022/09/05 05:51:45;;;;;;;2.07;0.99;;;;;;;13.22;58.21;101528.77;457273;115;923005;-70
2022/09/05 05:53:15;;;;;;;0.93;0.84;;;;;;;13.38;58.27;101527.52;477129;110;946786;-71
2022/09/05 05:54:39;;;;;;;1.07;0.92;;;;;;;13.30;58.36;101525.81;468560;112;922452;-72
2022/09/05 05:56:04;;;;;;;2.52;0.87;;;;;;;13.34;58.23;101533.40;471044;112;923079;-72
2022/09/05 05:57:37;;;;;;;1.45;0.80;;;;;;;13.37;58.18;101532.15;471888;112;923137;-70
2022/09/05 05:59:12;;;;;;;5.81;1.05;;;;;;;13.38;58.03;101533.84;456386;115;923158;-70
2022/09/05 06:00:22;;;;;;;0.86;0.68;;;;;;;13.40;57.86;101531.72;467158;113;923075;-71